Nyk Rumina — 9V7645 — position and weather

sailwx.info

Track history (hours):
 
Tides and Currents Weather Stations Pressure Air Temp Water Temp Dewpoint Dewpoint Depression Visibility Wind Speed Wind Dir Waves Ship Positions

Nyk Rumina

Last reported at 2017-Sep-25 10:59 UTC. Time now 2017-Sep-25 11:30 UTC.
Position N 33°45' W 118°12'.

Length 294 m; draft 9.7 m.

Type: Ship. MMSI: 563758000.

Date/timePositionNaut miles runAvg speedWind from/ knotsBaromVisibWave heightAir tempDewpointWater temp
2017-Sep-25 10:59N 33°45' W 118°12'1 1.7
2017-Sep-25 10:30N 33°44' W 118°12'4 8.3
2017-Sep-25 10:00N 33°40' W 118°11'4 8.7
2017-Sep-25 09:30N 33°37' W 118°14'612.1
2017-Sep-25 09:00N 33°37' W 118°21'612.6
2017-Sep-25 08:30N 33°39' W 118°28'612.9
2017-Sep-25 08:00N 33°43' W 118°35'612.8
2017-Sep-25 07:30N 33°46' W 118°41'612.7
2017-Sep-25 07:00N 33°49' W 118°48'612.3
2017-Sep-25 06:30N 33°52' W 118°54'612.1
2017-Sep-25 06:00N 33°55' W 119°01'612.1
2017-Sep-25 05:30N 33°58' W 119°07'612.1
2017-Sep-25 05:00N 34°01' W 119°13'612.6
2017-Sep-25 04:30N 34°03' W 119°21'816.6
2017-Sep-25 04:00N 34°05' W 119°30'1019.8
2017-Sep-25 03:30N 34°08' W 119°42'1121.2
2017-Sep-25 02:59N 34°11' W 119°55'1021.0
2017-Sep-25 02:30N 34°13' W 120°06'1121.5
2017-Sep-25 02:00N 34°16' W 120°19'1121.7
2017-Sep-25 01:30N 34°19' W 120°32'1121.8
2017-Sep-25 01:00N 34°22' W 120°44'1122.1
2017-Sep-25 00:30N 34°25' W 120°57'1121.5
2017-Sep-25 00:00N 34°33' W 121°07'1122.3
2017-Sep-24 23:30N 34°41' W 121°15'1122.4
2017-Sep-24 23:00N 34°49' W 121°24'1122.5
2017-Sep-24 22:30N 34°58' W 121°34'1122.4
2017-Sep-24 22:00N 35°07' W 121°42'1122.3
2017-Sep-24 21:30N 35°15' W 121°51'1122.0
2017-Sep-24 21:00N 35°24' W 121°58'1121.7
2017-Sep-24 20:30N 35°35' W 122°02'1121.5
2017-Sep-24 20:00N 35°45' W 122°06'1122.4
2017-Sep-24 19:30N 35°56' W 122°10'1122.3
2017-Sep-24 19:00N 36°06' W 122°14'1122.2
2017-Sep-24 18:30N 36°17' W 122°19'1122.0
2017-Sep-24 18:00N 36°27' W 122°24'1121.3
2017-Sep-24 17:30N 36°37' W 122°28'1121.3
2017-Sep-24 17:00N 36°47' W 122°33'1121.6
2017-Sep-24 16:30N 36°57' W 122°37'1020.8
2017-Sep-24 16:00N 37°07' W 122°42'1019.1
2017-Sep-24 15:30N 37°16' W 122°44'816.4
2017-Sep-24 15:00N 37°25' W 122°44'816.1
2017-Sep-24 14:30N 37°33' W 122°44'713.4
2017-Sep-24 14:00N 37°39' W 122°44'612.6
2017-Sep-24 13:30N 37°45' W 122°40'612.2
2017-Sep-24 13:00N 37°48' W 122°33'714.9
2017-Sep-24 12:31N 37°50' W 122°24'5 9.0
2017-Sep-24 12:01N 37°48' W 122°19'0 0.4
2017-Sep-24 11:28N 37°48' W 122°19'0 0.0
2017-Sep-24 10:55N 37°48' W 122°19'0 0.0
2017-Sep-24 10:28N 37°48' W 122°19'0 0.0
2017-Sep-24 09:58N 37°48' W 122°19'0 0.0
2017-Sep-24 09:28N 37°48' W 122°19'0 0.0
2017-Sep-24 08:58N 37°48' W 122°19'0 0.0
2017-Sep-24 08:28N 37°48' W 122°19'0 0.0
2017-Sep-24 07:58N 37°48' W 122°19'0 0.0
2017-Sep-24 07:28N 37°48' W 122°19'0 0.0
2017-Sep-24 06:58N 37°48' W 122°19'0 0.0
2017-Sep-24 06:28N 37°48' W 122°19'0 0.0
2017-Sep-24 05:58N 37°48' W 122°19'0 0.0
2017-Sep-24 05:28N 37°48' W 122°19'0 0.0
2017-Sep-24 04:58N 37°48' W 122°19'0 0.0
2017-Sep-24 04:28N 37°48' W 122°19'0 0.0
2017-Sep-24 03:58N 37°48' W 122°19'0 0.0
2017-Sep-24 03:28N 37°48' W 122°19'0 0.0
2017-Sep-24 02:58N 37°48' W 122°19'0 0.0
2017-Sep-24 02:28N 37°48' W 122°19'0 0.0
2017-Sep-24 01:58N 37°48' W 122°19'0 0.0
2017-Sep-24 01:28N 37°48' W 122°19'0 0.0
2017-Sep-24 00:58N 37°48' W 122°19'0 0.0
2017-Sep-24 00:28N 37°48' W 122°19'0 0.0
2017-Sep-23 23:58N 37°48' W 122°19'0 0.0
2017-Sep-23 23:28N 37°48' W 122°19'0 0.0
2017-Sep-23 23:00N 37°48' W 122°19'1 1.8
2017-Sep-23 22:30N 37°48' W 122°17'3 5.9
2017-Sep-23 22:00N 37°48' W 122°21'611.6
2017-Sep-23 21:30N 37°49' W 122°28'816.3
2017-Sep-23 21:00N 37°46' W 122°38'611.4
2017-Sep-23 20:30N 37°46' W 122°45'611.4
2017-Sep-23 20:00N 37°49' W 122°52'55913.3
2017-Sep-22 02:00N 46°56' W 125°28'714.0
2017-Sep-22 01:30N 47°03' W 125°30'713.9
2017-Sep-22 01:00N 47°09' W 125°30'713.9
2017-Sep-22 00:30N 47°16' W 125°29'713.8
2017-Sep-22 00:00N 47°23' W 125°29'713.9
2017-Sep-21 23:30N 47°30' W 125°29'713.9
2017-Sep-21 23:01N 47°37' W 125°28'713.4
2017-Sep-21 22:30N 47°44' W 125°28'713.7
2017-Sep-21 22:00N 47°51' W 125°28'713.8
2017-Sep-21 21:30N 47°58' W 125°28'713.8
2017-Sep-21 21:00N 48°04' W 125°25'713.7
2017-Sep-21 20:29N 48°11' W 125°20'713.0
2017-Sep-21 19:57N 48°17' W 125°15'613.9
2017-Sep-21 19:30N 48°22' W 125°10'713.8
2017-Sep-21 18:59N 48°28' W 125°06'613.0
2017-Sep-21 18:30N 48°31' W 124°57'815.0
2017-Sep-21 18:00N 48°30' W 124°46'815.2
2017-Sep-21 17:30N 48°28' W 124°35'816.4
2017-Sep-21 17:00N 48°25' W 124°23'816.4
2017-Sep-21 16:30N 48°22' W 124°12'816.8
2017-Sep-21 16:00N 48°19' W 124°00'816.7
2017-Sep-21 15:30N 48°17' W 123°48'816.3
2017-Sep-21 15:00N 48°16' W 123°36'713.7
2017-Sep-21 14:30N 48°19' W 123°27'510.6
2017-Sep-21 14:00N 48°23' W 123°21'612.5
2017-Sep-21 13:30N 48°25' W 123°12'612.0
2017-Sep-21 13:00N 48°31' W 123°13'510.3
2017-Sep-21 12:30N 48°36' W 123°14'611.5
2017-Sep-21 12:00N 48°42' W 123°15'714.6
2017-Sep-21 11:31N 48°45' W 123°06'611.2
2017-Sep-21 11:00N 48°51' W 123°03'815.7
2017-Sep-21 10:31N 48°56' W 123°12'815.6
2017-Sep-21 10:01N 49°01' W 123°20'510.1
2017-Sep-21 09:30N 49°06' W 123°18'611.8
2017-Sep-21 09:00N 49°07' W 123°09'612.6
2017-Sep-21 08:30N 49°09' W 123°00'4 7.8
2017-Sep-21 08:00N 49°11' W 122°55'0 0.3
2017-Sep-21 07:30N 49°11' W 122°55'0 0.0
2017-Sep-21 07:00N 49°11' W 122°55'0 0.0
2017-Sep-21 06:30N 49°11' W 122°55'0 0.0
2017-Sep-21 05:57N 49°11' W 122°55'0 0.0
2017-Sep-21 05:30N 49°11' W 122°55'0 0.0
2017-Sep-21 05:00N 49°11' W 122°55'0 0.0
2017-Sep-21 04:30N 49°11' W 122°55'0 0.0
2017-Sep-21 04:00N 49°11' W 122°55'0 0.0
2017-Sep-21 03:30N 49°11' W 122°55'0 0.0
2017-Sep-21 03:00N 49°11' W 122°55'0 0.0
2017-Sep-21 02:30N 49°11' W 122°55'0 0.0
2017-Sep-21 02:00N 49°11' W 122°55'0 0.1
2017-Sep-21 01:30N 49°11' W 122°55'0 0.1
2017-Sep-21 00:57N 49°11' W 122°55'0 0.0
2017-Sep-21 00:27N 49°11' W 122°55'0 0.0
2017-Sep-20 23:51N 49°11' W 122°55'0 0.0
2017-Sep-20 23:30N 49°11' W 122°55'0 0.0
2017-Sep-20 22:54N 49°11' W 122°55'0 0.0
2017-Sep-20 22:27N 49°11' W 122°55'0 0.0
2017-Sep-20 22:00N 49°11' W 122°55'0 0.0
2017-Sep-20 21:30N 49°11' W 122°55'0 0.0
2017-Sep-20 20:57N 49°11' W 122°55'0 0.0
2017-Sep-20 20:30N 49°11' W 122°55'0 0.0
2017-Sep-20 19:54N 49°11' W 122°55'0 0.0
2017-Sep-20 19:24N 49°11' W 122°55'0 0.0
2017-Sep-20 19:00N 49°11' W 122°55'0 0.0
2017-Sep-20 18:30N 49°11' W 122°55'0 0.0
2017-Sep-20 18:00N 49°11' W 122°55'0 0.0
2017-Sep-20 17:30N 49°11' W 122°55'0 0.0
2017-Sep-20 17:00N 49°11' W 122°55'0 0.0
2017-Sep-20 16:30N 49°11' W 122°55'0 0.0
2017-Sep-20 16:00N 49°11' W 122°55'0 0.0
2017-Sep-20 15:30N 49°11' W 122°55'0 0.0
2017-Sep-20 15:01N 49°11' W 122°55'6 6.0
2017-Sep-20 14:00N 49°08' W 123°03'510.8
2017-Sep-20 13:30N 49°07' W 123°11'611.4
2017-Sep-20 13:00N 49°06' W 123°20'3 6.7
2017-Sep-20 12:30N 49°02' W 123°19'612.2
2017-Sep-20 12:01N 48°59' W 123°11'713.1
2017-Sep-20 11:30N 48°54' W 123°04'714.6
2017-Sep-20 11:00N 48°47' W 123°01'816.2
2017-Sep-20 10:30N 48°43' W 123°11'611.8
2017-Sep-20 10:00N 48°37' W 123°14'611.8
2017-Sep-20 09:30N 48°31' W 123°12'611.5
2017-Sep-20 09:00N 48°26' W 123°10'713.6
2017-Sep-20 08:30N 48°22' W 123°19'4 8.8
2017-Sep-20 08:00N 48°19' W 123°24'3 6.4
2017-Sep-20 07:30N 48°16' W 123°26'3 6.7
2017-Sep-20 07:01N 48°13' W 123°26'4 8.0
2017-Sep-20 06:31N 48°10' W 123°23'611.5
2017-Sep-20 06:00N 48°10' W 123°15'1019.5
2017-Sep-20 05:30N 48°12' W 123°01'1121.7
2017-Sep-20 05:00N 48°10' W 122°45'1122.6
2017-Sep-20 04:30N 48°00' W 122°36'1020.3
2017-Sep-20 04:00N 47°52' W 122°28'918.8
2017-Sep-20 03:30N 47°43' W 122°27'917.8
2017-Sep-20 03:00N 47°34' W 122°26'815.3
2017-Sep-20 02:30N 47°26' W 122°23'714.5
2017-Sep-20 02:00N 47°19' W 122°27'3 6.5
2017-Sep-20 01:29N 47°16' W 122°25'0 0.0
2017-Sep-20 00:59N 47°16' W 122°25'0 0.0
2017-Sep-20 00:29N 47°16' W 122°25'0 0.0
2017-Sep-19 23:59N 47°16' W 122°25'0 0.0
2017-Sep-19 23:29N 47°16' W 122°25'0 0.0
2017-Sep-19 22:59N 47°16' W 122°25'0 0.0
2017-Sep-19 22:29N 47°16' W 122°25'0 0.0
2017-Sep-19 21:59N 47°16' W 122°25'0 0.0
2017-Sep-19 21:26N 47°16' W 122°25'0 0.0
2017-Sep-19 20:59N 47°16' W 122°25'0 0.0
2017-Sep-19 20:29N 47°16' W 122°25'0 0.0
2017-Sep-19 19:56N 47°16' W 122°25'0 0.0
2017-Sep-19 19:29N 47°16' W 122°25'0 0.0
2017-Sep-19 18:59N 47°16' W 122°25'0 0.0
2017-Sep-19 18:29N 47°16' W 122°25'0 0.0
2017-Sep-19 17:59N 47°16' W 122°25'0 0.0
2017-Sep-19 17:29N 47°16' W 122°25'0 0.0
2017-Sep-19 16:59N 47°16' W 122°25'0 0.0
2017-Sep-19 16:29N 47°16' W 122°25'0 0.0
2017-Sep-19 15:59N 47°16' W 122°25'0 0.0
2017-Sep-19 15:29N 47°16' W 122°25'0 0.0
2017-Sep-19 14:56N 47°16' W 122°25'0 0.0
2017-Sep-19 14:26N 47°16' W 122°25'0 0.0
2017-Sep-19 13:56N 47°16' W 122°25'0 0.0
2017-Sep-19 13:23N 47°16' W 122°25'0 0.6
2017-Sep-19 13:00N 47°16' W 122°25'2 3.2
2017-Sep-19 12:31N 47°18' W 122°27'510.2
2017-Sep-19 12:00N 47°22' W 122°23'714.4
2017-Sep-19 11:31N 47°29' W 122°25'815.7
2017-Sep-19 11:01N 47°37' W 122°28'816.4
2017-Sep-19 10:31N 47°45' W 122°27'919.0
2017-Sep-19 10:00N 47°54' W 122°30'1122.3
2017-Sep-19 09:30N 48°04' W 122°39'1122.1
2017-Sep-19 09:00N 48°11' W 122°51'1122.8
2017-Sep-19 08:31N 48°12' W 123°08'918.2
2017-Sep-19 08:00N 48°10' W 123°22'5 9.4
2017-Sep-19 07:30N 48°12' W 123°28'4 7.4
2017-Sep-19 07:00N 48°13' W 123°33'611.6
2017-Sep-19 06:30N 48°13' W 123°42'611.3
2017-Sep-19 06:00N 48°13' W 123°51'611.4
2017-Sep-19 05:30N 48°15' W 123°59'612.4
2017-Sep-19 05:00N 48°17' W 124°07'612.6
2017-Sep-19 04:30N 48°20' W 124°16'612.1
2017-Sep-19 04:00N 48°23' W 124°24'611.8
2017-Sep-19 03:30N 48°25' W 124°32'611.6
2017-Sep-19 03:00N 48°27' W 124°40'611.1
2017-Sep-19 02:30N 48°29' W 124°48'611.4
2017-Sep-19 02:00N 48°29' W 124°57'611.6
2017-Sep-19 01:30N 48°24' W 125°02'713.3
2017-Sep-19 01:00N 48°18' W 125°06'712.9
2017-Sep-19 00:28N 48°12' W 125°10'712.7
2017-Sep-18 23:57N 48°05' W 125°14'613.1
2017-Sep-18 23:29N 47°60' W 125°17'54313.8
2017-Sep-17 08:12N 38°58' W 124°13'314.3
2017-Sep-17 07:59N 38°56' W 124°11'714.2
2017-Sep-17 07:30N 38°51' W 124°05'714.3
2017-Sep-17 07:00N 38°45' W 123°59'714.2
2017-Sep-17 06:30N 38°40' W 123°53'714.2
2017-Sep-17 06:00N 38°34' W 123°47'714.2
2017-Sep-17 05:30N 38°29' W 123°42'714.0
2017-Sep-17 05:00N 38°24' W 123°36'713.9
2017-Sep-17 04:30N 38°18' W 123°30'713.7
2017-Sep-17 04:00N 38°13' W 123°25'612.6
2017-Sep-17 03:30N 38°08' W 123°19'611.5
2017-Sep-17 03:00N 38°04' W 123°14'612.2
2017-Sep-17 02:30N 37°59' W 123°09'612.3
2017-Sep-17 02:00N 37°56' W 123°03'612.4
2017-Sep-17 01:30N 37°53' W 122°56'612.8
2017-Sep-17 01:00N 37°50' W 122°49'612.8
2017-Sep-17 00:30N 37°46' W 122°42'611.0
2017-Sep-17 00:01N 37°47' W 122°36'815.6
2017-Sep-16 23:31N 37°51' W 122°27'510.9
2017-Sep-16 23:00N 37°48' W 122°21'3 5.5
2017-Sep-16 22:31N 37°48' W 122°17'2 3.1
2017-Sep-16 22:00N 37°48' W 122°19'0 0.0
2017-Sep-16 21:31N 37°48' W 122°19'0 0.0
2017-Sep-16 21:00N 37°48' W 122°19'0 0.0
2017-Sep-16 20:30N 37°48' W 122°19'0 0.0
2017-Sep-16 20:00N 37°48' W 122°19'0 0.0
2017-Sep-16 19:30N 37°48' W 122°19'0 0.0
2017-Sep-16 19:00N 37°48' W 122°19'0 0.0
2017-Sep-16 18:30N 37°48' W 122°19'0 0.0
2017-Sep-16 18:00N 37°48' W 122°19'0 0.0
2017-Sep-16 17:30N 37°48' W 122°19'0 0.0
2017-Sep-16 17:00N 37°48' W 122°19'0 0.0
2017-Sep-16 16:30N 37°48' W 122°19'0 0.0
2017-Sep-16 16:00N 37°48' W 122°19'0 0.0
2017-Sep-16 15:30N 37°48' W 122°19'0 0.0
2017-Sep-16 15:00N 37°48' W 122°19'0 0.0
2017-Sep-16 14:30N 37°48' W 122°19'0 0.0
2017-Sep-16 14:00N 37°48' W 122°19'0 0.0
2017-Sep-16 13:30N 37°48' W 122°19'0 0.0
2017-Sep-16 13:00N 37°48' W 122°19'2 5.0
2017-Sep-16 12:30N 37°48' W 122°22'510.7
2017-Sep-16 12:01N 37°49' W 122°29'714.7
2017-Sep-16 11:30N 37°46' W 122°38'4 7.4
2017-Sep-16 11:00N 37°43' W 122°40'5 9.8
2017-Sep-16 10:30N 37°38' W 122°39'4 8.6
2017-Sep-16 10:00N 37°34' W 122°39'611.8
2017-Sep-16 09:30N 37°28' W 122°39'611.5
2017-Sep-16 09:00N 37°22' W 122°40'611.9
2017-Sep-16 08:30N 37°16' W 122°39'611.5
2017-Sep-16 08:00N 37°11' W 122°39'611.2
2017-Sep-16 07:30N 37°06' W 122°36'1019.2
2017-Sep-16 07:00N 36°57' W 122°32'1019.6
2017-Sep-16 06:30N 36°48' W 122°27'1019.5
2017-Sep-16 06:00N 36°39' W 122°22'1019.2
2017-Sep-16 05:30N 36°30' W 122°18'7319.1
2017-Sep-16 01:41N 35°25' W 121°37'319.3
2017-Sep-16 01:30N 35°22' W 121°35'1119.0
2017-Sep-16 00:56N 35°12' W 121°28'1018.8
2017-Sep-16 00:24N 35°03' W 121°23'1019.0
2017-Sep-15 23:53N 34°55' W 121°17'718.8
2017-Sep-15 23:30N 34°48' W 121°13'918.9
2017-Sep-15 23:00N 34°40' W 121°08'918.8
2017-Sep-15 22:30N 34°32' W 121°02'917.5
2017-Sep-15 22:00N 34°27' W 120°54'1019.4
2017-Sep-15 21:29N 34°24' W 120°42'1119.2
2017-Sep-15 20:56N 34°21' W 120°29'819.2
2017-Sep-15 20:30N 34°19' W 120°20'1018.9
2017-Sep-15 19:58N 34°17' W 120°08'919.5
2017-Sep-15 19:30N 34°14' W 119°57'1019.7
2017-Sep-15 18:59N 34°11' W 119°46'919.5
2017-Sep-15 18:30N 34°09' W 119°35'1019.6
2017-Sep-15 18:00N 34°06' W 119°23'1019.5
2017-Sep-15 17:29N 34°03' W 119°12'916.7
2017-Sep-15 16:57N 33°58' W 119°03'511.8
2017-Sep-15 16:30N 33°56' W 118°57'611.6
2017-Sep-15 16:01N 33°53' W 118°51'611.8
2017-Sep-15 15:31N 33°50' W 118°45'612.0
2017-Sep-15 15:01N 33°47' W 118°39'612.0
2017-Sep-15 14:31N 33°44' W 118°32'611.8
2017-Sep-15 14:01N 33°42' W 118°26'612.0
2017-Sep-15 13:31N 33°38' W 118°20'611.7
2017-Sep-15 13:00N 33°39' W 118°13'5 9.7
2017-Sep-15 12:30N 33°44' W 118°12'1 2.2
2017-Sep-15 12:00N 33°45' W 118°12'0 0.0
2017-Sep-15 11:30N 33°45' W 118°12'  
Track history (hours):
 
Tides and Currents Weather Stations Pressure Air Temp Water Temp Dewpoint Dewpoint Depression Visibility Wind Speed Wind Dir Waves Ship Positions

Nyk Rumina

Last reported at 2017-Sep-25 10:59 UTC. Time now 2017-Sep-25 11:30 UTC.
Position N 33°45' W 118°12'.

Length 294 m; draft 9.7 m.

Type: Ship. MMSI: 563758000.

Date/timePositionNaut miles runAvg speedWind from/ knotsBaromVisibWave heightAir tempDewpointWater temp
2017-Sep-25 10:59N 33°45' W 118°12'1 1.7
2017-Sep-25 10:30N 33°44' W 118°12'4 8.3
2017-Sep-25 10:00N 33°40' W 118°11'4 8.7
2017-Sep-25 09:30N 33°37' W 118°14'612.1
2017-Sep-25 09:00N 33°37' W 118°21'612.6
2017-Sep-25 08:30N 33°39' W 118°28'612.9
2017-Sep-25 08:00N 33°43' W 118°35'612.8
2017-Sep-25 07:30N 33°46' W 118°41'612.7
2017-Sep-25 07:00N 33°49' W 118°48'612.3
2017-Sep-25 06:30N 33°52' W 118°54'612.1
2017-Sep-25 06:00N 33°55' W 119°01'612.1
2017-Sep-25 05:30N 33°58' W 119°07'612.1
2017-Sep-25 05:00N 34°01' W 119°13'612.6
2017-Sep-25 04:30N 34°03' W 119°21'816.6
2017-Sep-25 04:00N 34°05' W 119°30'1019.8
2017-Sep-25 03:30N 34°08' W 119°42'1121.2
2017-Sep-25 02:59N 34°11' W 119°55'1021.0
2017-Sep-25 02:30N 34°13' W 120°06'1121.5
2017-Sep-25 02:00N 34°16' W 120°19'1121.7
2017-Sep-25 01:30N 34°19' W 120°32'1121.8
2017-Sep-25 01:00N 34°22' W 120°44'1122.1
2017-Sep-25 00:30N 34°25' W 120°57'1121.5
2017-Sep-25 00:00N 34°33' W 121°07'1122.3
2017-Sep-24 23:30N 34°41' W 121°15'1122.4
2017-Sep-24 23:00N 34°49' W 121°24'1122.5
2017-Sep-24 22:30N 34°58' W 121°34'1122.4
2017-Sep-24 22:00N 35°07' W 121°42'1122.3
2017-Sep-24 21:30N 35°15' W 121°51'1122.0
2017-Sep-24 21:00N 35°24' W 121°58'1121.7
2017-Sep-24 20:30N 35°35' W 122°02'1121.5
2017-Sep-24 20:00N 35°45' W 122°06'1122.4
2017-Sep-24 19:30N 35°56' W 122°10'1122.3
2017-Sep-24 19:00N 36°06' W 122°14'1122.2
2017-Sep-24 18:30N 36°17' W 122°19'1122.0
2017-Sep-24 18:00N 36°27' W 122°24'1121.3
2017-Sep-24 17:30N 36°37' W 122°28'1121.3
2017-Sep-24 17:00N 36°47' W 122°33'1121.6
2017-Sep-24 16:30N 36°57' W 122°37'1020.8
2017-Sep-24 16:00N 37°07' W 122°42'1019.1
2017-Sep-24 15:30N 37°16' W 122°44'816.4
2017-Sep-24 15:00N 37°25' W 122°44'816.1
2017-Sep-24 14:30N 37°33' W 122°44'713.4
2017-Sep-24 14:00N 37°39' W 122°44'612.6
2017-Sep-24 13:30N 37°45' W 122°40'612.2
2017-Sep-24 13:00N 37°48' W 122°33'714.9
2017-Sep-24 12:31N 37°50' W 122°24'5 9.0
2017-Sep-24 12:01N 37°48' W 122°19'0 0.4
2017-Sep-24 11:28N 37°48' W 122°19'0 0.0
2017-Sep-24 10:55N 37°48' W 122°19'0 0.0
2017-Sep-24 10:28N 37°48' W 122°19'0 0.0
2017-Sep-24 09:58N 37°48' W 122°19'0 0.0
2017-Sep-24 09:28N 37°48' W 122°19'0 0.0
2017-Sep-24 08:58N 37°48' W 122°19'0 0.0
2017-Sep-24 08:28N 37°48' W 122°19'0 0.0
2017-Sep-24 07:58N 37°48' W 122°19'0 0.0
2017-Sep-24 07:28N 37°48' W 122°19'0 0.0
2017-Sep-24 06:58N 37°48' W 122°19'0 0.0
2017-Sep-24 06:28N 37°48' W 122°19'0 0.0
2017-Sep-24 05:58N 37°48' W 122°19'0 0.0
2017-Sep-24 05:28N 37°48' W 122°19'0 0.0
2017-Sep-24 04:58N 37°48' W 122°19'0 0.0
2017-Sep-24 04:28N 37°48' W 122°19'0 0.0
2017-Sep-24 03:58N 37°48' W 122°19'0 0.0
2017-Sep-24 03:28N 37°48' W 122°19'0 0.0
2017-Sep-24 02:58N 37°48' W 122°19'0 0.0
2017-Sep-24 02:28N 37°48' W 122°19'0 0.0
2017-Sep-24 01:58N 37°48' W 122°19'0 0.0
2017-Sep-24 01:28N 37°48' W 122°19'0 0.0
2017-Sep-24 00:58N 37°48' W 122°19'0 0.0
2017-Sep-24 00:28N 37°48' W 122°19'0 0.0
2017-Sep-23 23:58N 37°48' W 122°19'0 0.0
2017-Sep-23 23:28N 37°48' W 122°19'0 0.0
2017-Sep-23 23:00N 37°48' W 122°19'1 1.8
2017-Sep-23 22:30N 37°48' W 122°17'3 5.9
2017-Sep-23 22:00N 37°48' W 122°21'611.6
2017-Sep-23 21:30N 37°49' W 122°28'816.3
2017-Sep-23 21:00N 37°46' W 122°38'611.4
2017-Sep-23 20:30N 37°46' W 122°45'611.4
2017-Sep-23 20:00N 37°49' W 122°52'55913.3
2017-Sep-22 02:00N 46°56' W 125°28'714.0
2017-Sep-22 01:30N 47°03' W 125°30'713.9
2017-Sep-22 01:00N 47°09' W 125°30'713.9
2017-Sep-22 00:30N 47°16' W 125°29'713.8
2017-Sep-22 00:00N 47°23' W 125°29'713.9
2017-Sep-21 23:30N 47°30' W 125°29'713.9
2017-Sep-21 23:01N 47°37' W 125°28'713.4
2017-Sep-21 22:30N 47°44' W 125°28'713.7
2017-Sep-21 22:00N 47°51' W 125°28'713.8
2017-Sep-21 21:30N 47°58' W 125°28'713.8
2017-Sep-21 21:00N 48°04' W 125°25'713.7
2017-Sep-21 20:29N 48°11' W 125°20'713.0
2017-Sep-21 19:57N 48°17' W 125°15'613.9
2017-Sep-21 19:30N 48°22' W 125°10'713.8
2017-Sep-21 18:59N 48°28' W 125°06'613.0
2017-Sep-21 18:30N 48°31' W 124°57'815.0
2017-Sep-21 18:00N 48°30' W 124°46'815.2
2017-Sep-21 17:30N 48°28' W 124°35'816.4
2017-Sep-21 17:00N 48°25' W 124°23'816.4
2017-Sep-21 16:30N 48°22' W 124°12'816.8
2017-Sep-21 16:00N 48°19' W 124°00'816.7
2017-Sep-21 15:30N 48°17' W 123°48'816.3
2017-Sep-21 15:00N 48°16' W 123°36'713.7
2017-Sep-21 14:30N 48°19' W 123°27'510.6
2017-Sep-21 14:00N 48°23' W 123°21'612.5
2017-Sep-21 13:30N 48°25' W 123°12'612.0
2017-Sep-21 13:00N 48°31' W 123°13'510.3
2017-Sep-21 12:30N 48°36' W 123°14'611.5
2017-Sep-21 12:00N 48°42' W 123°15'714.6
2017-Sep-21 11:31N 48°45' W 123°06'611.2
2017-Sep-21 11:00N 48°51' W 123°03'815.7
2017-Sep-21 10:31N 48°56' W 123°12'815.6
2017-Sep-21 10:01N 49°01' W 123°20'510.1
2017-Sep-21 09:30N 49°06' W 123°18'611.8
2017-Sep-21 09:00N 49°07' W 123°09'612.6
2017-Sep-21 08:30N 49°09' W 123°00'4 7.8
2017-Sep-21 08:00N 49°11' W 122°55'0 0.3
2017-Sep-21 07:30N 49°11' W 122°55'0 0.0
2017-Sep-21 07:00N 49°11' W 122°55'0 0.0
2017-Sep-21 06:30N 49°11' W 122°55'0 0.0
2017-Sep-21 05:57N 49°11' W 122°55'0 0.0
2017-Sep-21 05:30N 49°11' W 122°55'0 0.0
2017-Sep-21 05:00N 49°11' W 122°55'0 0.0
2017-Sep-21 04:30N 49°11' W 122°55'0 0.0
2017-Sep-21 04:00N 49°11' W 122°55'0 0.0
2017-Sep-21 03:30N 49°11' W 122°55'0 0.0
2017-Sep-21 03:00N 49°11' W 122°55'0 0.0
2017-Sep-21 02:30N 49°11' W 122°55'0 0.0
2017-Sep-21 02:00N 49°11' W 122°55'0 0.1
2017-Sep-21 01:30N 49°11' W 122°55'0 0.1
2017-Sep-21 00:57N 49°11' W 122°55'0 0.0
2017-Sep-21 00:27N 49°11' W 122°55'0 0.0
2017-Sep-20 23:51N 49°11' W 122°55'0 0.0
2017-Sep-20 23:30N 49°11' W 122°55'0 0.0
2017-Sep-20 22:54N 49°11' W 122°55'0 0.0
2017-Sep-20 22:27N 49°11' W 122°55'0 0.0
2017-Sep-20 22:00N 49°11' W 122°55'0 0.0
2017-Sep-20 21:30N 49°11' W 122°55'0 0.0
2017-Sep-20 20:57N 49°11' W 122°55'0 0.0
2017-Sep-20 20:30N 49°11' W 122°55'0 0.0
2017-Sep-20 19:54N 49°11' W 122°55'0 0.0
2017-Sep-20 19:24N 49°11' W 122°55'0 0.0
2017-Sep-20 19:00N 49°11' W 122°55'0 0.0
2017-Sep-20 18:30N 49°11' W 122°55'0 0.0
2017-Sep-20 18:00N 49°11' W 122°55'0 0.0
2017-Sep-20 17:30N 49°11' W 122°55'0 0.0
2017-Sep-20 17:00N 49°11' W 122°55'0 0.0
2017-Sep-20 16:30N 49°11' W 122°55'0 0.0
2017-Sep-20 16:00N 49°11' W 122°55'0 0.0
2017-Sep-20 15:30N 49°11' W 122°55'0 0.0
2017-Sep-20 15:01N 49°11' W 122°55'6 6.0
2017-Sep-20 14:00N 49°08' W 123°03'510.8
2017-Sep-20 13:30N 49°07' W 123°11'611.4
2017-Sep-20 13:00N 49°06' W 123°20'3 6.7
2017-Sep-20 12:30N 49°02' W 123°19'612.2
2017-Sep-20 12:01N 48°59' W 123°11'713.1
2017-Sep-20 11:30N 48°54' W 123°04'714.6
2017-Sep-20 11:00N 48°47' W 123°01'816.2
2017-Sep-20 10:30N 48°43' W 123°11'611.8
2017-Sep-20 10:00N 48°37' W 123°14'611.8
2017-Sep-20 09:30N 48°31' W 123°12'611.5
2017-Sep-20 09:00N 48°26' W 123°10'713.6
2017-Sep-20 08:30N 48°22' W 123°19'4 8.8
2017-Sep-20 08:00N 48°19' W 123°24'3 6.4
2017-Sep-20 07:30N 48°16' W 123°26'3 6.7
2017-Sep-20 07:01N 48°13' W 123°26'4 8.0
2017-Sep-20 06:31N 48°10' W 123°23'611.5
2017-Sep-20 06:00N 48°10' W 123°15'1019.5
2017-Sep-20 05:30N 48°12' W 123°01'1121.7
2017-Sep-20 05:00N 48°10' W 122°45'1122.6
2017-Sep-20 04:30N 48°00' W 122°36'1020.3
2017-Sep-20 04:00N 47°52' W 122°28'918.8
2017-Sep-20 03:30N 47°43' W 122°27'917.8
2017-Sep-20 03:00N 47°34' W 122°26'815.3
2017-Sep-20 02:30N 47°26' W 122°23'714.5
2017-Sep-20 02:00N 47°19' W 122°27'3 6.5
2017-Sep-20 01:29N 47°16' W 122°25'0 0.0
2017-Sep-20 00:59N 47°16' W 122°25'0 0.0
2017-Sep-20 00:29N 47°16' W 122°25'0 0.0
2017-Sep-19 23:59N 47°16' W 122°25'0 0.0
2017-Sep-19 23:29N 47°16' W 122°25'0 0.0
2017-Sep-19 22:59N 47°16' W 122°25'0 0.0
2017-Sep-19 22:29N 47°16' W 122°25'0 0.0
2017-Sep-19 21:59N 47°16' W 122°25'0 0.0
2017-Sep-19 21:26N 47°16' W 122°25'0 0.0
2017-Sep-19 20:59N 47°16' W 122°25'0 0.0
2017-Sep-19 20:29N 47°16' W 122°25'0 0.0
2017-Sep-19 19:56N 47°16' W 122°25'0 0.0
2017-Sep-19 19:29N 47°16' W 122°25'0 0.0
2017-Sep-19 18:59N 47°16' W 122°25'0 0.0
2017-Sep-19 18:29N 47°16' W 122°25'0 0.0
2017-Sep-19 17:59N 47°16' W 122°25'0 0.0
2017-Sep-19 17:29N 47°16' W 122°25'0 0.0
2017-Sep-19 16:59N 47°16' W 122°25'0 0.0
2017-Sep-19 16:29N 47°16' W 122°25'0 0.0
2017-Sep-19 15:59N 47°16' W 122°25'0 0.0
2017-Sep-19 15:29N 47°16' W 122°25'0 0.0
2017-Sep-19 14:56N 47°16' W 122°25'0 0.0
2017-Sep-19 14:26N 47°16' W 122°25'0 0.0
2017-Sep-19 13:56N 47°16' W 122°25'0 0.0
2017-Sep-19 13:23N 47°16' W 122°25'0 0.6
2017-Sep-19 13:00N 47°16' W 122°25'2 3.2
2017-Sep-19 12:31N 47°18' W 122°27'510.2
2017-Sep-19 12:00N 47°22' W 122°23'714.4
2017-Sep-19 11:31N 47°29' W 122°25'815.7
2017-Sep-19 11:01N 47°37' W 122°28'816.4
2017-Sep-19 10:31N 47°45' W 122°27'919.0
2017-Sep-19 10:00N 47°54' W 122°30'1122.3
2017-Sep-19 09:30N 48°04' W 122°39'1122.1
2017-Sep-19 09:00N 48°11' W 122°51'1122.8
2017-Sep-19 08:31N 48°12' W 123°08'918.2
2017-Sep-19 08:00N 48°10' W 123°22'5 9.4
2017-Sep-19 07:30N 48°12' W 123°28'4 7.4
2017-Sep-19 07:00N 48°13' W 123°33'611.6
2017-Sep-19 06:30N 48°13' W 123°42'611.3
2017-Sep-19 06:00N 48°13' W 123°51'611.4
2017-Sep-19 05:30N 48°15' W 123°59'612.4
2017-Sep-19 05:00N 48°17' W 124°07'612.6
2017-Sep-19 04:30N 48°20' W 124°16'612.1
2017-Sep-19 04:00N 48°23' W 124°24'611.8
2017-Sep-19 03:30N 48°25' W 124°32'611.6
2017-Sep-19 03:00N 48°27' W 124°40'611.1
2017-Sep-19 02:30N 48°29' W 124°48'611.4
2017-Sep-19 02:00N 48°29' W 124°57'611.6
2017-Sep-19 01:30N 48°24' W 125°02'713.3
2017-Sep-19 01:00N 48°18' W 125°06'712.9
2017-Sep-19 00:28N 48°12' W 125°10'712.7
2017-Sep-18 23:57N 48°05' W 125°14'613.1
2017-Sep-18 23:29N 47°60' W 125°17'54313.8
2017-Sep-17 08:12N 38°58' W 124°13'314.3
2017-Sep-17 07:59N 38°56' W 124°11'714.2
2017-Sep-17 07:30N 38°51' W 124°05'714.3
2017-Sep-17 07:00N 38°45' W 123°59'714.2
2017-Sep-17 06:30N 38°40' W 123°53'714.2
2017-Sep-17 06:00N 38°34' W 123°47'714.2
2017-Sep-17 05:30N 38°29' W 123°42'714.0
2017-Sep-17 05:00N 38°24' W 123°36'713.9
2017-Sep-17 04:30N 38°18' W 123°30'713.7
2017-Sep-17 04:00N 38°13' W 123°25'612.6
2017-Sep-17 03:30N 38°08' W 123°19'611.5
2017-Sep-17 03:00N 38°04' W 123°14'612.2
2017-Sep-17 02:30N 37°59' W 123°09'612.3
2017-Sep-17 02:00N 37°56' W 123°03'612.4
2017-Sep-17 01:30N 37°53' W 122°56'612.8
2017-Sep-17 01:00N 37°50' W 122°49'612.8
2017-Sep-17 00:30N 37°46' W 122°42'611.0
2017-Sep-17 00:01N 37°47' W 122°36'815.6
2017-Sep-16 23:31N 37°51' W 122°27'510.9
2017-Sep-16 23:00N 37°48' W 122°21'3 5.5
2017-Sep-16 22:31N 37°48' W 122°17'2 3.1
2017-Sep-16 22:00N 37°48' W 122°19'0 0.0
2017-Sep-16 21:31N 37°48' W 122°19'0 0.0
2017-Sep-16 21:00N 37°48' W 122°19'0 0.0
2017-Sep-16 20:30N 37°48' W 122°19'0 0.0
2017-Sep-16 20:00N 37°48' W 122°19'0 0.0
2017-Sep-16 19:30N 37°48' W 122°19'0 0.0
2017-Sep-16 19:00N 37°48' W 122°19'0 0.0
2017-Sep-16 18:30N 37°48' W 122°19'0 0.0
2017-Sep-16 18:00N 37°48' W 122°19'0 0.0
2017-Sep-16 17:30N 37°48' W 122°19'0 0.0
2017-Sep-16 17:00N 37°48' W 122°19'0 0.0
2017-Sep-16 16:30N 37°48' W 122°19'0 0.0
2017-Sep-16 16:00N 37°48' W 122°19'0 0.0
2017-Sep-16 15:30N 37°48' W 122°19'0 0.0
2017-Sep-16 15:00N 37°48' W 122°19'0 0.0
2017-Sep-16 14:30N 37°48' W 122°19'0 0.0
2017-Sep-16 14:00N 37°48' W 122°19'0 0.0
2017-Sep-16 13:30N 37°48' W 122°19'0 0.0
2017-Sep-16 13:00N 37°48' W 122°19'2 5.0
2017-Sep-16 12:30N 37°48' W 122°22'510.7
2017-Sep-16 12:01N 37°49' W 122°29'714.7
2017-Sep-16 11:30N 37°46' W 122°38'4 7.4
2017-Sep-16 11:00N 37°43' W 122°40'5 9.8
2017-Sep-16 10:30N 37°38' W 122°39'4 8.6
2017-Sep-16 10:00N 37°34' W 122°39'611.8
2017-Sep-16 09:30N 37°28' W 122°39'611.5
2017-Sep-16 09:00N 37°22' W 122°40'611.9
2017-Sep-16 08:30N 37°16' W 122°39'611.5
2017-Sep-16 08:00N 37°11' W 122°39'611.2
2017-Sep-16 07:30N 37°06' W 122°36'1019.2
2017-Sep-16 07:00N 36°57' W 122°32'1019.6
2017-Sep-16 06:30N 36°48' W 122°27'1019.5
2017-Sep-16 06:00N 36°39' W 122°22'1019.2
2017-Sep-16 05:30N 36°30' W 122°18'7319.1
2017-Sep-16 01:41N 35°25' W 121°37'319.3
2017-Sep-16 01:30N 35°22' W 121°35'1119.0
2017-Sep-16 00:56N 35°12' W 121°28'1018.8
2017-Sep-16 00:24N 35°03' W 121°23'1019.0
2017-Sep-15 23:53N 34°55' W 121°17'718.8
2017-Sep-15 23:30N 34°48' W 121°13'918.9
2017-Sep-15 23:00N 34°40' W 121°08'918.8
2017-Sep-15 22:30N 34°32' W 121°02'917.5
2017-Sep-15 22:00N 34°27' W 120°54'1019.4
2017-Sep-15 21:29N 34°24' W 120°42'1119.2
2017-Sep-15 20:56N 34°21' W 120°29'819.2
2017-Sep-15 20:30N 34°19' W 120°20'1018.9
2017-Sep-15 19:58N 34°17' W 120°08'919.5
2017-Sep-15 19:30N 34°14' W 119°57'1019.7
2017-Sep-15 18:59N 34°11' W 119°46'919.5
2017-Sep-15 18:30N 34°09' W 119°35'1019.6
2017-Sep-15 18:00N 34°06' W 119°23'1019.5
2017-Sep-15 17:29N 34°03' W 119°12'916.7
2017-Sep-15 16:57N 33°58' W 119°03'511.8
2017-Sep-15 16:30N 33°56' W 118°57'611.6
2017-Sep-15 16:01N 33°53' W 118°51'611.8
2017-Sep-15 15:31N 33°50' W 118°45'612.0
2017-Sep-15 15:01N 33°47' W 118°39'612.0
2017-Sep-15 14:31N 33°44' W 118°32'611.8
2017-Sep-15 14:01N 33°42' W 118°26'612.0
2017-Sep-15 13:31N 33°38' W 118°20'611.7
2017-Sep-15 13:00N 33°39' W 118°13'5 9.7
2017-Sep-15 12:30N 33°44' W 118°12'1 2.2
2017-Sep-15 12:00N 33°45' W 118°12'0 0.0
2017-Sep-15 11:30N 33°45' W 118°12'  

Dump ship's entire track history